createdAt,value
2018-06-01T00:00:34.153Z,0.00
2018-06-01T00:01:34.244Z,0.00
2018-06-01T00:02:34.253Z,0.00
2018-06-01T00:03:34.305Z,0.00
2018-06-01T00:04:34.358Z,0.00
2018-06-01T00:05:34.403Z,0.00
2018-06-01T00:06:34.479Z,0.00
2018-06-01T00:07:34.505Z,0.00
2018-06-01T00:08:34.560Z,0.00
2018-06-01T00:09:34.605Z,0.00
2018-06-01T00:10:34.652Z,0.00
2018-06-01T00:11:34.747Z,0.00
2018-06-01T00:12:34.754Z,0.00
2018-06-01T00:13:34.805Z,0.00
2018-06-01T00:14:34.858Z,0.00
2018-06-01T00:15:34.903Z,0.00
2018-06-01T00:16:34.982Z,0.00
2018-06-01T00:17:35.027Z,0.00
2018-06-01T00:18:35.054Z,0.00
2018-06-01T00:19:35.104Z,0.00
2018-06-01T00:20:35.160Z,0.00
2018-06-01T00:21:35.207Z,0.00
2018-06-01T00:22:35.296Z,0.00
2018-06-01T00:23:35.306Z,0.00
2018-06-01T00:24:35.354Z,0.00
2018-06-01T00:25:35.404Z,0.00
2018-06-01T00:26:35.455Z,0.00
2018-06-01T00:27:35.529Z,0.00
2018-06-01T00:28:35.554Z,0.00
2018-06-01T00:29:35.607Z,0.00
2018-06-01T00:30:36.621Z,0.00
2018-06-01T00:31:35.705Z,0.00
2018-06-01T00:32:35.779Z,0.00
2018-06-01T00:33:35.810Z,0.00
2018-06-01T00:34:35.857Z,0.00
2018-06-01T00:35:35.903Z,0.00
2018-06-01T00:36:35.954Z,0.00
2018-06-01T00:37:36.032Z,0.00
2018-06-01T00:38:36.078Z,0.00
2018-06-01T00:39:36.110Z,0.00
2018-06-01T00:40:36.154Z,0.00
2018-06-01T00:41:36.203Z,0.00
2018-06-01T00:42:36.254Z,0.00
2018-06-01T00:43:36.337Z,0.00
2018-06-01T00:44:36.355Z,0.00
2018-06-01T00:45:36.403Z,0.00
2018-06-01T00:46:36.456Z,0.00
2018-06-01T00:47:36.507Z,0.00
2018-06-01T00:48:36.593Z,0.00
2018-06-01T00:49:36.605Z,0.00
2018-06-01T00:52:12.286Z,0.00
2018-06-01T00:53:12.311Z,0.00
2018-06-01T00:54:12.389Z,0.00
2018-06-01T00:55:12.410Z,0.00
2018-06-01T00:56:12.464Z,0.00
2018-06-01T00:57:12.510Z,0.00
2018-06-01T00:58:12.560Z,0.00
2018-06-01T00:59:12.637Z,0.00
2018-06-01T01:00:12.683Z,0.00
2018-06-01T01:01:12.709Z,0.00
2018-06-01T01:02:12.759Z,0.00
2018-06-01T01:03:12.811Z,0.00
2018-06-01T01:04:12.861Z,0.00
2018-06-01T01:05:12.933Z,0.00
2018-06-01T01:06:12.962Z,0.00
2018-06-01T01:07:13.010Z,0.00
2018-06-01T01:08:13.060Z,0.00
2018-06-01T01:09:13.109Z,0.00
2018-06-01T01:10:13.186Z,0.00
2018-06-01T01:11:13.213Z,0.00
2018-06-01T01:12:13.259Z,0.00
2018-06-01T01:13:13.311Z,0.00
2018-06-01T01:14:13.358Z,0.00
2018-06-01T01:15:13.437Z,0.00
2018-06-01T01:16:13.460Z,0.00
2018-06-01T01:17:13.510Z,0.00
2018-06-01T01:18:13.560Z,0.00
2018-06-01T01:19:13.611Z,0.00
2018-06-01T01:20:13.685Z,0.00
2018-06-01T01:21:13.731Z,0.00
2018-06-01T01:22:13.767Z,0.00
2018-06-01T01:23:13.805Z,0.00
2018-06-01T01:24:13.857Z,0.00
2018-06-01T01:25:13.938Z,0.00
2018-06-01T01:26:13.955Z,0.00
2018-06-01T01:27:14.006Z,0.00
2018-06-01T01:28:14.055Z,0.00
2018-06-01T01:29:14.107Z,0.00
2018-06-01T01:30:14.184Z,0.00
2018-06-01T01:31:14.203Z,0.00
2018-06-01T01:32:14.252Z,0.00
2018-06-01T01:33:14.302Z,0.00
2018-06-01T01:34:14.351Z,0.00
2018-06-01T01:35:14.425Z,0.00
2018-06-01T01:36:14.482Z,0.00
2018-06-01T01:37:14.503Z,0.00
2018-06-01T01:38:14.553Z,0.00
2018-06-01T01:39:14.602Z,0.00
2018-06-01T01:40:14.650Z,0.00
2018-06-01T01:41:14.732Z,0.00
2018-06-01T01:42:14.746Z,0.00
2018-06-01T01:43:14.798Z,0.00
2018-06-01T01:44:14.848Z,0.00
2018-06-01T01:45:14.897Z,0.00
2018-06-01T01:46:14.980Z,0.00
2018-06-01T01:47:14.995Z,0.00
2018-06-01T01:48:15.047Z,0.00
2018-06-01T01:49:15.095Z,0.00
2018-06-01T01:50:15.148Z,0.00
2018-06-01T01:51:15.234Z,0.00
2018-06-01T01:52:15.922Z,0.00
2018-06-01T01:53:15.295Z,0.00
2018-06-01T01:54:15.343Z,0.00
2018-06-01T01:55:15.396Z,0.00
2018-06-01T01:56:15.484Z,0.00
2018-06-01T01:57:15.492Z,0.00
2018-06-01T01:58:15.541Z,0.00
2018-06-01T01:59:15.594Z,0.00
2018-06-01T02:00:15.644Z,0.00
2018-06-01T02:01:15.714Z,0.00
2018-06-01T02:02:15.745Z,0.00
2018-06-01T02:03:15.815Z,0.00
2018-06-01T02:04:15.846Z,0.00
2018-06-01T02:05:15.896Z,0.00
2018-06-01T02:06:15.954Z,0.00
2018-06-01T02:07:16.013Z,0.00
2018-06-01T02:08:16.038Z,0.00
2018-06-01T02:09:16.088Z,0.00
2018-06-01T02:10:16.138Z,0.00
2018-06-01T02:11:16.188Z,0.00
2018-06-01T02:12:16.261Z,0.00
2018-06-01T02:13:16.286Z,0.00
2018-06-01T02:14:16.360Z,0.00
2018-06-01T02:15:16.385Z,0.00
2018-06-01T02:16:16.436Z,0.00
2018-06-01T02:17:16.487Z,0.00
2018-06-01T02:18:16.532Z,0.00
2018-06-01T02:19:16.605Z,0.00
2018-06-01T02:20:16.633Z,0.00
2018-06-01T02:21:16.684Z,0.00
2018-06-01T02:22:16.730Z,0.00
2018-06-01T02:23:16.780Z,0.00
2018-06-01T02:24:16.855Z,0.00
2018-06-01T02:25:16.880Z,0.00
2018-06-01T02:26:16.934Z,0.00
2018-06-01T02:27:16.979Z,0.00
2018-06-01T02:28:17.027Z,0.00
2018-06-01T02:29:17.101Z,0.00
2018-06-01T02:30:17.149Z,0.00
2018-06-01T02:31:17.174Z,0.00
2018-06-01T02:32:17.227Z,0.00
2018-06-01T02:33:17.275Z,0.00
2018-06-01T02:34:17.348Z,0.00
2018-06-01T02:35:17.400Z,0.00
2018-06-01T02:36:17.424Z,0.00
2018-06-01T02:37:17.471Z,0.00
2018-06-01T02:38:17.523Z,0.00
2018-06-01T02:39:17.594Z,0.00
2018-06-01T02:40:17.645Z,0.00
2018-06-01T02:41:17.669Z,0.00
2018-06-01T02:42:17.721Z,0.00
2018-06-01T02:43:17.767Z,0.00
2018-06-01T02:44:17.816Z,0.00
2018-06-01T02:45:17.894Z,0.00
2018-06-01T02:46:17.938Z,0.00
2018-06-01T02:47:17.964Z,0.00
2018-06-01T02:48:18.015Z,0.00
2018-06-01T02:49:18.067Z,0.00
2018-06-01T02:50:18.137Z,0.00
2018-06-01T02:51:18.165Z,0.00
2018-06-01T02:52:18.213Z,0.00
2018-06-01T02:53:18.261Z,0.00
2018-06-01T02:54:18.308Z,0.00
2018-06-01T02:55:18.384Z,0.00
2018-06-01T02:56:18.440Z,0.00
2018-06-01T02:57:18.460Z,0.00
2018-06-01T02:58:18.509Z,0.00
2018-06-01T02:59:18.557Z,0.00
2018-06-01T03:00:18.635Z,0.00
2018-06-01T03:01:18.655Z,0.00
2018-06-01T03:02:18.705Z,0.00
2018-06-01T03:03:18.753Z,0.00
2018-06-01T03:04:18.806Z,0.00
2018-06-01T03:05:18.875Z,0.00
2018-06-01T03:06:18.903Z,0.00
2018-06-01T03:07:18.976Z,0.00
2018-06-01T03:08:18.999Z,0.00
2018-06-01T03:09:19.053Z,0.00
2018-06-01T03:10:19.097Z,0.00
2018-06-01T03:11:19.728Z,0.00
2018-06-01T03:12:19.229Z,0.00
2018-06-01T03:13:19.245Z,0.00
2018-06-01T03:14:19.293Z,0.00
2018-06-01T03:15:19.349Z,0.00
2018-06-01T03:16:19.395Z,0.00
2018-06-01T03:17:19.468Z,0.00
2018-06-01T03:18:19.492Z,0.00
2018-06-01T03:19:19.539Z,0.00
2018-06-01T03:20:19.591Z,0.00
2018-06-01T03:21:19.665Z,0.00
2018-06-01T03:22:19.712Z,0.00
2018-06-01T03:23:19.738Z,0.00
2018-06-01T03:24:19.791Z,5.63
2018-06-01T03:25:19.838Z,5.63
2018-06-01T03:26:19.884Z,5.63
2018-06-01T03:27:19.960Z,5.63
2018-06-01T03:28:19.983Z,5.63
2018-06-01T03:29:20.034Z,5.63
2018-06-01T03:30:20.087Z,5.63
2018-06-01T03:31:20.129Z,5.63
2018-06-01T03:32:20.208Z,5.63
2018-06-01T03:33:20.232Z,11.25
2018-06-01T03:34:20.281Z,11.25
2018-06-01T03:35:20.327Z,11.25
2018-06-01T03:36:20.380Z,11.25
2018-06-01T03:37:20.449Z,11.25
2018-06-01T03:38:20.477Z,11.25
2018-06-01T03:39:20.548Z,16.88
2018-06-01T03:40:20.574Z,16.88
2018-06-01T03:41:20.629Z,16.88
2018-06-01T03:42:20.671Z,16.88
2018-06-01T03:43:20.747Z,16.88
2018-06-01T03:44:20.770Z,22.50
2018-06-01T03:45:20.820Z,22.50
2018-06-01T03:46:20.871Z,22.50
2018-06-01T03:47:20.922Z,22.50
2018-06-01T03:48:21.001Z,22.50
2018-06-01T03:49:21.018Z,28.13
2018-06-01T03:50:21.065Z,28.13
2018-06-01T03:51:21.115Z,28.13
2018-06-01T03:52:21.166Z,28.13
2018-06-01T03:53:21.245Z,28.13
2018-06-01T03:54:21.268Z,33.75
2018-06-01T03:55:21.313Z,33.75
2018-06-01T03:56:21.393Z,33.75
2018-06-01T03:57:21.412Z,33.75
2018-06-01T03:58:21.483Z,33.75
2018-06-01T03:59:21.510Z,33.75
2018-06-01T04:00:21.561Z,39.38
2018-06-01T04:01:21.609Z,39.38
2018-06-01T04:02:21.655Z,39.38
2018-06-01T04:03:21.732Z,39.38
2018-06-01T04:04:21.780Z,39.38
2018-06-01T04:05:21.826Z,45.00
2018-06-01T04:06:21.854Z,45.00
2018-06-01T04:07:21.901Z,45.00
2018-06-01T04:08:21.952Z,45.00
2018-06-01T04:09:22.479Z,45.00
2018-06-01T04:10:22.049Z,50.63
2018-06-01T04:11:22.100Z,50.63
2018-06-01T04:12:22.150Z,50.63
2018-06-01T04:13:22.199Z,50.63
2018-06-01T04:14:22.269Z,56.25
2018-06-01T04:15:22.296Z,56.25
2018-06-01T04:16:22.345Z,56.25
2018-06-01T04:17:22.397Z,56.25
2018-06-01T04:18:22.444Z,56.25
2018-06-01T04:19:22.529Z,61.88
2018-06-01T04:20:22.553Z,61.88
2018-06-01T04:21:22.592Z,61.88
2018-06-01T04:22:22.644Z,61.88
2018-06-01T04:23:22.688Z,67.50
2018-06-01T04:24:22.771Z,67.50
2018-06-01T04:25:22.789Z,67.50
2018-06-01T04:26:22.982Z,73.13
2018-06-01T04:27:22.886Z,73.13
2018-06-01T04:28:22.937Z,73.13
2018-06-01T04:29:22.985Z,78.75
2018-06-01T04:30:23.036Z,78.75
2018-06-01T04:31:23.120Z,78.75
2018-06-01T04:32:23.138Z,84.38
2018-06-01T04:33:23.182Z,84.38
2018-06-01T04:34:23.231Z,90.00
2018-06-01T04:35:23.280Z,90.00
2018-06-01T04:36:23.356Z,90.00
2018-06-01T04:37:23.379Z,90.00
2018-06-01T04:38:23.429Z,95.63
2018-06-01T04:39:23.484Z,95.63
2018-06-01T04:40:23.553Z,95.63
2018-06-01T04:41:23.579Z,101.25
2018-06-01T04:42:23.650Z,101.25
2018-06-01T04:43:23.673Z,101.25
2018-06-01T04:44:23.723Z,101.25
2018-06-01T04:45:23.772Z,101.25
2018-06-01T04:46:23.819Z,101.25
2018-06-01T04:47:23.910Z,106.88
2018-06-01T04:48:23.919Z,106.88
2018-06-01T04:49:23.976Z,106.88
2018-06-01T04:50:24.017Z,112.50
2018-06-01T04:51:24.069Z,112.50
2018-06-01T04:52:24.142Z,118.13
2018-06-01T04:53:24.165Z,118.13
2018-06-01T04:54:24.215Z,123.75
2018-06-01T04:55:24.266Z,129.38
2018-06-01T04:56:24.340Z,129.38
2018-06-01T04:57:24.365Z,129.38
2018-06-01T04:58:24.439Z,129.38
2018-06-01T04:59:24.464Z,129.38
2018-06-01T05:00:24.516Z,135.00
2018-06-01T05:01:24.562Z,135.00
2018-06-01T05:02:24.609Z,135.00
2018-06-01T05:03:24.687Z,135.00
2018-06-01T05:04:24.707Z,140.63
2018-06-01T05:05:24.757Z,140.63
2018-06-01T05:06:24.806Z,140.63
2018-06-01T05:07:24.857Z,140.63
2018-06-01T05:08:24.927Z,146.25
2018-06-01T05:09:24.955Z,146.25
2018-06-01T05:10:25.002Z,146.25
2018-06-01T05:11:25.054Z,146.25
2018-06-01T05:12:25.104Z,146.25
2018-06-01T05:13:25.182Z,151.88
2018-06-01T05:14:25.202Z,151.88
2018-06-01T05:15:25.256Z,151.88
2018-06-01T05:16:25.301Z,151.88
2018-06-01T05:17:25.350Z,157.50
2018-06-01T05:18:25.424Z,157.50
2018-06-01T05:19:25.477Z,157.50
2018-06-01T05:20:25.500Z,157.50
2018-06-01T05:21:25.547Z,163.13
2018-06-01T05:22:25.596Z,163.13
2018-06-01T05:23:25.645Z,163.13
2018-06-01T05:24:25.719Z,163.13
2018-06-01T05:25:25.745Z,168.75
2018-06-01T05:26:25.799Z,168.75
2018-06-01T05:27:25.852Z,168.75
2018-06-01T05:28:25.897Z,168.75
2018-06-01T05:29:25.982Z,174.38
2018-06-01T05:30:25.994Z,174.38
2018-06-01T05:31:26.041Z,180.00
2018-06-01T05:32:26.100Z,180.00
2018-06-01T05:33:26.143Z,180.00
2018-06-01T05:34:26.214Z,185.63
2018-06-01T05:35:26.285Z,185.63
2018-06-01T05:36:26.290Z,185.63
2018-06-01T05:37:26.341Z,185.63
2018-06-01T05:38:26.392Z,191.25
2018-06-01T05:39:26.469Z,191.25
2018-06-01T05:40:26.488Z,191.25
2018-06-01T05:41:26.540Z,191.25
2018-06-01T05:42:26.588Z,191.25
2018-06-01T05:43:26.641Z,191.25
2018-06-01T05:44:26.723Z,196.88
2018-06-01T05:45:26.738Z,196.88
2018-06-01T05:46:26.787Z,196.88
2018-06-01T05:47:26.836Z,202.50
2018-06-01T05:48:26.887Z,202.50
2018-06-01T05:49:26.983Z,202.50
2018-06-01T05:50:26.989Z,208.13
2018-06-01T05:51:27.039Z,208.13
2018-06-01T05:52:27.103Z,208.13
2018-06-01T05:53:27.139Z,213.75
2018-06-01T05:54:27.237Z,213.75
2018-06-01T05:55:27.237Z,219.38
2018-06-01T05:56:27.288Z,219.38
2018-06-01T05:57:27.337Z,230.63
2018-06-01T05:58:27.386Z,225.00
2018-06-01T05:59:27.465Z,230.63
2018-06-01T06:00:27.486Z,230.63
2018-06-01T06:01:27.559Z,236.25
2018-06-01T06:02:27.609Z,241.88
2018-06-01T06:03:27.638Z,241.88
2018-06-01T06:04:27.689Z,241.88
2018-06-01T06:05:27.736Z,241.88
2018-06-01T06:06:27.811Z,247.50
2018-06-01T06:07:27.835Z,247.50
2018-06-01T06:08:27.886Z,247.50
2018-06-01T06:09:27.949Z,247.50
2018-06-01T06:10:27.986Z,258.75
2018-06-01T06:11:28.064Z,253.13
2018-06-01T06:12:28.087Z,253.13
2018-06-01T06:13:28.141Z,264.38
2018-06-01T06:14:28.189Z,258.75
2018-06-01T06:15:28.237Z,258.75
2018-06-01T06:16:28.320Z,258.75
2018-06-01T06:17:28.340Z,258.75
2018-06-01T06:18:28.387Z,264.38
2018-06-01T06:19:28.439Z,264.38
2018-06-01T06:20:28.490Z,270.00
2018-06-01T06:21:28.567Z,270.00
2018-06-01T06:22:28.639Z,275.63
2018-06-01T06:23:28.644Z,281.25
2018-06-01T06:24:28.689Z,286.88
2018-06-01T06:25:28.749Z,292.50
2018-06-01T06:26:28.790Z,292.50
2018-06-01T06:27:28.872Z,298.13
2018-06-01T06:28:28.893Z,298.13
2018-06-01T06:29:28.945Z,303.75
2018-06-01T06:30:28.997Z,320.63
2018-06-01T06:31:29.070Z,320.63
2018-06-01T06:32:29.125Z,337.50
2018-06-01T06:33:29.147Z,365.63
2018-06-01T06:34:29.198Z,495.00
2018-06-01T06:35:29.253Z,658.13
2018-06-01T06:36:29.299Z,855.00
2018-06-01T06:37:29.380Z,562.50
2018-06-01T06:38:29.396Z,624.38
2018-06-01T06:39:29.451Z,590.63
2018-06-01T06:40:29.499Z,770.63
2018-06-01T06:41:29.550Z,523.13
2018-06-01T06:42:29.655Z,568.13
2018-06-01T06:43:29.653Z,433.13
2018-06-01T06:44:29.699Z,410.63
2018-06-01T06:45:29.844Z,455.63
2018-06-01T06:46:29.797Z,360.00
2018-06-01T06:47:29.887Z,365.63
2018-06-01T06:48:29.903Z,365.63
2018-06-01T06:49:29.955Z,433.13
2018-06-01T06:50:30.980Z,405.00
2018-06-01T06:51:30.060Z,450.00
2018-06-01T06:52:30.170Z,781.88
2018-06-01T06:53:30.267Z,1316.25
2018-06-01T06:54:30.295Z,1276.88
2018-06-01T06:55:30.263Z,1057.50
2018-06-01T06:56:30.320Z,708.75
2018-06-01T06:57:30.379Z,725.63
2018-06-01T06:58:30.510Z,1018.13
2018-06-01T06:59:30.538Z,1125.00
2018-06-01T07:00:30.525Z,832.50
2018-06-01T07:01:30.573Z,995.63
2018-06-01T07:02:30.619Z,1479.38
2018-06-01T07:03:30.707Z,1372.50
2018-06-01T07:04:30.720Z,1209.38
2018-06-01T07:05:30.778Z,1524.38
2018-06-01T07:06:30.851Z,1462.50
2018-06-01T07:07:30.880Z,1569.38
2018-06-01T07:08:30.975Z,1580.63
2018-06-01T07:09:30.981Z,1530.00
2018-06-01T07:10:31.087Z,1569.38
2018-06-01T07:11:31.084Z,1265.63
2018-06-01T07:12:31.135Z,1681.88
2018-06-01T07:13:31.383Z,1693.13
2018-06-01T07:14:31.323Z,911.25
2018-06-01T07:15:31.302Z,1524.38
2018-06-01T07:16:31.405Z,1456.88
2018-06-01T07:17:31.398Z,1687.50
2018-06-01T07:18:31.525Z,1816.88
2018-06-01T07:19:31.509Z,1800.00
2018-06-01T07:20:31.581Z,1839.38
2018-06-01T07:21:31.614Z,1833.75
2018-06-01T07:22:31.701Z,1867.50
2018-06-01T07:23:31.719Z,1912.50
2018-06-01T07:24:31.773Z,1856.25
2018-06-01T07:25:31.850Z,1890.00
2018-06-01T07:26:31.879Z,1957.50
2018-06-01T07:27:31.937Z,1890.00
2018-06-01T07:28:31.985Z,1923.75
2018-06-01T07:29:32.067Z,1963.13
2018-06-01T07:30:32.092Z,1985.63
2018-06-01T07:31:32.166Z,2030.63
2018-06-01T07:32:32.200Z,2047.50
2018-06-01T07:33:32.254Z,2086.88
2018-06-01T07:34:32.337Z,2120.63
2018-06-01T07:35:32.360Z,2115.00
2018-06-01T07:36:32.439Z,2086.88
2018-06-01T07:37:32.470Z,2070.00
2018-06-01T07:38:32.522Z,2025.00
2018-06-01T07:39:32.577Z,1996.88
2018-06-01T07:40:32.635Z,1996.88
2018-06-01T07:41:32.711Z,2019.38
2018-06-01T07:42:32.744Z,2041.88
2018-06-01T07:43:32.795Z,2092.50
2018-06-01T07:44:32.852Z,2148.75
2018-06-01T07:45:32.903Z,2238.75
2018-06-01T07:46:32.995Z,2289.38
2018-06-01T07:47:33.019Z,2362.50
2018-06-01T07:48:33.072Z,2418.75
2018-06-01T07:49:33.126Z,2385.00
2018-06-01T07:50:33.175Z,2379.38
2018-06-01T07:51:33.256Z,2362.50
2018-06-01T07:52:33.309Z,2390.63
2018-06-01T07:53:33.348Z,2418.75
2018-06-01T07:54:33.418Z,2486.25
2018-06-01T07:55:33.447Z,2587.50
2018-06-01T07:56:33.505Z,2745.00
2018-06-01T07:57:33.583Z,2565.00
2018-06-01T07:58:33.614Z,2407.50
2018-06-01T07:59:33.669Z,2188.13
2018-06-01T08:00:33.721Z,1816.88
2018-06-01T08:01:33.778Z,1856.25
2018-06-01T08:02:33.855Z,1923.75
2018-06-01T08:03:33.920Z,1890.00
2018-06-01T08:04:33.946Z,1895.63
2018-06-01T08:05:33.995Z,1935.00
2018-06-01T08:06:34.053Z,1957.50
2018-06-01T08:07:34.111Z,1957.50
2018-06-01T08:08:34.181Z,1974.38
2018-06-01T08:09:34.219Z,1991.25
2018-06-01T08:10:34.268Z,2030.63
2018-06-01T08:11:34.321Z,2047.50
2018-06-01T08:12:34.382Z,2075.63
2018-06-01T08:13:34.471Z,2120.63
2018-06-01T08:14:34.483Z,2154.38
2018-06-01T08:15:34.538Z,2182.50
2018-06-01T08:16:34.593Z,2216.25
2018-06-01T08:17:34.650Z,2205.00
2018-06-01T08:18:34.729Z,2199.38
2018-06-01T08:19:34.779Z,2171.25
2018-06-01T08:20:34.813Z,2205.00
2018-06-01T08:21:34.867Z,2205.00
2018-06-01T08:22:34.919Z,2227.50
2018-06-01T08:23:34.973Z,2250.00
2018-06-01T08:24:35.053Z,2300.63
2018-06-01T08:25:35.086Z,2345.63
2018-06-01T08:26:35.137Z,2379.38
2018-06-01T08:27:35.192Z,2390.63
2018-06-01T08:28:35.251Z,2385.00
2018-06-01T08:29:35.344Z,2379.38
2018-06-01T08:30:35.356Z,2396.25
2018-06-01T08:31:35.409Z,2413.13
2018-06-01T08:32:35.520Z,2430.00
2018-06-01T08:33:35.519Z,2441.25
2018-06-01T08:34:35.597Z,2458.13
2018-06-01T08:35:35.628Z,2475.00
2018-06-01T08:36:35.684Z,2531.25
2018-06-01T08:37:35.743Z,2559.38
2018-06-01T08:38:35.791Z,2587.50
2018-06-01T08:39:35.877Z,2615.63
2018-06-01T08:40:35.900Z,2643.75
2018-06-01T08:41:35.952Z,2626.88
2018-06-01T08:42:36.018Z,2610.00
2018-06-01T08:43:36.064Z,2598.75
2018-06-01T08:44:36.153Z,2553.75
2018-06-01T08:45:36.174Z,2559.38
2018-06-01T08:46:36.263Z,2598.75
2018-06-01T08:47:36.285Z,2604.38
2018-06-01T08:48:36.337Z,2610.00
2018-06-01T08:49:36.425Z,2581.88
2018-06-01T08:50:36.482Z,2559.38
2018-06-01T08:51:36.509Z,2531.25
2018-06-01T08:52:36.582Z,2508.75
2018-06-01T08:53:36.617Z,2497.50
2018-06-01T08:54:36.671Z,2480.63
2018-06-01T08:55:36.757Z,2503.13
2018-06-01T08:56:36.783Z,2514.38
2018-06-01T08:57:36.835Z,2531.25
2018-06-01T08:58:36.890Z,2542.50
2018-06-01T08:59:36.948Z,2615.63
2018-06-01T09:00:37.023Z,2548.13
2018-06-01T09:01:37.081Z,2587.50
2018-06-01T09:02:37.109Z,2593.13
2018-06-01T09:03:37.170Z,2559.38
2018-06-01T09:04:37.244Z,2503.13
2018-06-01T09:05:37.280Z,2480.63
2018-06-01T09:06:37.357Z,2424.38
2018-06-01T09:07:38.235Z,2368.13
2018-06-01T09:08:37.444Z,2323.13
2018-06-01T09:09:37.535Z,2328.75
2018-06-01T09:10:37.555Z,2306.25
2018-06-01T09:11:37.647Z,2340.00
2018-06-01T09:12:37.675Z,1288.13
2018-06-01T09:13:37.726Z,1434.38
2018-06-01T09:14:37.819Z,1816.88
2018-06-01T09:15:37.838Z,1350.00
2018-06-01T09:16:37.946Z,1816.88
2018-06-01T09:17:37.951Z,1530.00
2018-06-01T09:18:38.007Z,2289.38
2018-06-01T09:19:38.073Z,2131.88
2018-06-01T09:20:38.134Z,1845.00
2018-06-01T09:21:38.202Z,2008.13
2018-06-01T09:22:38.266Z,1473.75
2018-06-01T09:23:38.287Z,1693.13
2018-06-01T09:24:38.347Z,1445.63
2018-06-01T09:25:38.400Z,1676.25
2018-06-01T09:26:38.468Z,1845.00
2018-06-01T09:27:38.547Z,1558.13
2018-06-01T09:28:38.567Z,1243.13
2018-06-01T09:29:38.624Z,1141.88
2018-06-01T09:30:38.690Z,1884.38
2018-06-01T09:31:38.734Z,990.00
2018-06-01T09:32:38.815Z,1068.75
2018-06-01T09:33:38.867Z,1057.50
2018-06-01T09:34:38.901Z,939.38
2018-06-01T09:35:38.958Z,945.00
2018-06-01T09:36:39.011Z,1080.00
2018-06-01T09:37:39.065Z,1659.38
2018-06-01T09:38:39.754Z,1935.00
2018-06-01T09:39:39.173Z,1096.88
2018-06-01T09:40:39.235Z,1074.38
2018-06-01T09:41:39.291Z,1141.88
2018-06-01T09:42:39.338Z,1496.25
2018-06-01T09:43:39.417Z,1046.25
2018-06-01T09:44:39.446Z,1811.25
2018-06-01T09:45:39.504Z,1068.75
2018-06-01T09:46:39.572Z,1350.00
2018-06-01T09:47:39.612Z,900.00
2018-06-01T09:48:39.688Z,838.13
2018-06-01T09:49:39.752Z,832.50
2018-06-01T09:50:39.772Z,810.00
2018-06-01T09:51:39.830Z,798.75
2018-06-01T09:52:39.889Z,855.00
2018-06-01T09:53:39.938Z,821.25
2018-06-01T09:54:40.018Z,849.38
2018-06-01T09:55:40.047Z,855.00
2018-06-01T09:56:40.104Z,888.75
2018-06-01T09:57:40.155Z,911.25
2018-06-01T09:58:40.209Z,916.88
2018-06-01T09:59:40.299Z,922.50
2018-06-01T10:00:40.347Z,956.25
2018-06-01T10:01:40.378Z,1113.75
2018-06-01T10:02:40.457Z,1215.00
2018-06-01T10:03:40.485Z,1164.38
2018-06-01T10:04:41.059Z,2626.88
2018-06-01T10:05:40.616Z,1530.00
2018-06-01T10:06:40.652Z,1046.25
2018-06-01T10:07:40.703Z,2986.88
2018-06-01T10:08:40.762Z,2688.75
2018-06-01T10:09:40.812Z,3448.13
2018-06-01T10:10:40.899Z,2716.88
2018-06-01T10:11:40.926Z,1383.75
2018-06-01T10:12:40.976Z,3341.25
2018-06-01T10:13:41.036Z,1968.75
2018-06-01T10:14:41.086Z,1411.88
2018-06-01T10:15:41.222Z,3999.38
2018-06-01T10:16:41.196Z,2863.13
2018-06-01T10:17:41.252Z,2424.38
2018-06-01T10:18:41.309Z,1158.75
2018-06-01T10:19:41.365Z,1141.88
2018-06-01T10:20:41.462Z,3656.25
2018-06-01T10:21:41.477Z,1063.13
2018-06-01T10:22:41.532Z,1051.88
2018-06-01T10:23:41.586Z,1423.13
2018-06-01T10:24:41.648Z,3847.50
2018-06-01T10:25:41.729Z,3780.00
2018-06-01T10:26:41.753Z,1648.13
2018-06-01T10:27:41.833Z,1198.13
2018-06-01T10:28:41.867Z,1541.25
2018-06-01T10:29:41.922Z,1305.00
2018-06-01T10:30:41.980Z,1428.75
2018-06-01T10:31:42.057Z,2981.25
2018-06-01T10:32:42.093Z,1209.38
2018-06-01T10:33:42.150Z,1496.25
2018-06-01T10:34:42.205Z,1125.00
2018-06-01T10:35:42.259Z,1085.63
2018-06-01T10:36:42.342Z,1260.00
2018-06-01T10:37:42.398Z,3352.50
2018-06-01T10:38:42.427Z,3003.75
2018-06-01T10:39:42.488Z,3155.63
2018-06-01T10:40:42.540Z,3071.25
2018-06-01T10:41:42.667Z,3138.75
2018-06-01T10:42:42.655Z,3127.50
2018-06-01T10:43:42.737Z,3043.13
2018-06-01T10:44:42.767Z,2925.00
2018-06-01T10:45:42.826Z,2795.63
2018-06-01T10:46:42.902Z,2671.88
2018-06-01T10:47:42.938Z,2542.50
2018-06-01T10:48:42.996Z,2396.25
2018-06-01T10:49:43.076Z,2266.88
2018-06-01T10:50:43.130Z,2137.50
2018-06-01T10:51:43.166Z,2041.88
2018-06-01T10:52:43.221Z,1980.00
2018-06-01T10:53:43.307Z,1940.63
2018-06-01T10:54:43.360Z,1912.50
2018-06-01T10:55:43.391Z,1906.88
2018-06-01T10:56:43.452Z,1935.00
2018-06-01T10:57:43.507Z,1974.38
2018-06-01T10:58:43.565Z,1996.88
2018-06-01T10:59:43.654Z,2008.13
2018-06-01T11:00:43.677Z,2013.75
2018-06-01T11:01:43.737Z,2064.38
2018-06-01T11:02:43.792Z,2086.88
2018-06-01T11:03:43.849Z,2115.00
2018-06-01T11:04:43.932Z,2115.00
2018-06-01T11:05:43.965Z,2176.88
2018-06-01T11:06:44.021Z,2227.50
2018-06-01T11:07:44.081Z,2255.63
2018-06-01T11:08:44.141Z,2295.00
2018-06-01T11:09:44.220Z,2351.25
2018-06-01T11:10:44.277Z,2407.50
2018-06-01T11:11:44.314Z,2463.75
2018-06-01T11:12:44.368Z,2520.00
2018-06-01T11:13:44.431Z,2559.38
2018-06-01T11:14:44.490Z,2559.38
2018-06-01T11:15:44.567Z,2576.25
2018-06-01T11:16:44.628Z,2632.50
2018-06-01T11:17:44.661Z,2677.50
2018-06-01T11:18:44.716Z,2728.13
2018-06-01T11:19:44.776Z,2745.00
2018-06-01T11:20:44.834Z,2773.13
2018-06-01T11:21:44.915Z,2801.25
2018-06-01T11:22:44.951Z,2812.50
2018-06-01T11:23:45.008Z,2851.88
2018-06-01T11:24:45.068Z,2902.50
2018-06-01T11:25:45.125Z,2947.50
2018-06-01T11:26:45.207Z,2975.63
2018-06-01T11:27:45.240Z,2986.88
2018-06-01T11:28:45.302Z,2992.50
2018-06-01T11:29:45.358Z,3026.25
2018-06-01T11:30:45.421Z,3076.88
2018-06-01T11:31:46.102Z,3133.13
2018-06-01T11:32:45.537Z,3189.38
2018-06-01T11:33:45.591Z,3223.13
2018-06-01T11:34:45.652Z,3211.88
2018-06-01T11:35:45.709Z,3195.00
2018-06-01T11:36:45.797Z,3217.50
2018-06-01T11:37:45.863Z,3245.63
2018-06-01T11:38:45.885Z,3279.38
2018-06-01T11:39:45.943Z,3335.63
2018-06-01T11:40:46.002Z,3386.25
2018-06-01T11:41:46.060Z,3465.00
2018-06-01T11:42:46.160Z,3470.63
2018-06-01T11:43:46.178Z,3510.00
2018-06-01T11:44:46.237Z,3583.13
2018-06-01T11:45:46.297Z,3611.25
2018-06-01T11:46:46.359Z,3639.38
2018-06-01T11:47:46.447Z,3645.00
2018-06-01T11:48:46.474Z,3616.88
2018-06-01T11:49:46.538Z,3588.75
2018-06-01T11:50:46.592Z,3526.88
2018-06-01T11:51:46.652Z,3521.25
2018-06-01T11:52:46.748Z,3538.13
2018-06-01T11:53:46.769Z,3543.75
2018-06-01T11:54:46.840Z,3510.00
2018-06-01T11:55:46.886Z,3493.13
2018-06-01T11:56:46.948Z,3465.00
2018-06-01T11:57:47.030Z,3448.13
2018-06-01T11:58:47.101Z,3465.00
2018-06-01T11:59:47.122Z,3459.38
2018-06-01T12:00:47.181Z,3465.00
2018-06-01T12:01:47.292Z,3465.00
2018-06-01T12:02:47.304Z,3459.38
2018-06-01T12:03:47.385Z,3408.75
2018-06-01T12:04:47.424Z,3352.50
2018-06-01T12:05:47.481Z,3307.50
2018-06-01T12:06:47.542Z,3228.75
2018-06-01T12:07:47.598Z,3150.00
2018-06-01T12:08:47.695Z,3076.88
2018-06-01T12:09:47.721Z,3026.25
2018-06-01T12:10:47.834Z,2964.38
2018-06-01T12:11:47.839Z,2908.13
2018-06-01T12:12:47.901Z,2874.38
2018-06-01T12:13:47.983Z,2874.38
2018-06-01T12:14:48.020Z,2868.75
2018-06-01T12:15:48.077Z,2851.88
2018-06-01T12:16:48.136Z,2795.63
2018-06-01T12:17:48.217Z,2790.00
2018-06-01T12:18:48.288Z,2784.38
2018-06-01T12:19:48.325Z,2801.25
2018-06-01T12:20:48.375Z,2851.88
2018-06-01T12:21:48.436Z,2857.50
2018-06-01T12:22:48.493Z,2874.38
2018-06-01T12:23:48.585Z,2784.38
2018-06-01T12:24:48.616Z,2801.25
2018-06-01T12:25:48.673Z,2840.63
2018-06-01T12:26:48.736Z,2851.88
2018-06-01T12:27:48.793Z,2863.13
2018-06-01T12:28:48.889Z,2846.25
2018-06-01T12:29:48.917Z,2840.63
2018-06-01T12:30:48.976Z,2835.00
2018-06-01T12:31:49.034Z,2840.63
2018-06-01T12:32:49.092Z,2868.75
2018-06-01T12:33:49.179Z,2891.25
2018-06-01T12:34:49.212Z,2902.50
2018-06-01T12:35:49.296Z,2964.38